CheckWX is a tool to help pilots better visualize weather data.  It is not intended as a substitute for an official pre-flight weather briefing.

20:57:44 UTC

KEAT METAR
Pangborn Memorial Airport
Wenatchee, Washington, USA
Current

1 hour ago

KEAT 231955Z AUTO 27006KT 10SM BKN065 19/03 A3002 RMK AO2 SLP163 T01940028 TSNO
Observed
Apr-23 @ 19:55 UTC
Wind
  • 270° at 6 KTS
Visibility
10 SM
Flight Rules
VFR
Cloud Levels
  • Broken at 6,500' AGL
Temperature
19°C / 66°F
Dewpoint
C / 37°F
Humidity
35%
Altimeter
30.02" Hg
Pressure
1016.62 hPa
Previous

2 hours ago

KEAT 231855Z AUTO 30008KT 10SM SCT065 19/04 A3004 RMK AO2 SLP170 T01890039 TSNO
Observed
Apr-23 @ 18:55 UTC
Wind
  • 300° at 8 KTS
Visibility
10 SM
Flight Rules
VFR
Cloud Levels
  • Scattered at 6,500' AGL
Temperature
19°C / 66°F
Dewpoint
C / 39°F
Humidity
37%
Altimeter
30.04" Hg
Pressure
1017.32 hPa
Previous

3 hours ago

KEAT 231755Z AUTO 20004KT 10SM CLR 17/05 A3004 RMK AO2 SLP171 T01670050 10172 20089 58010 TSNO
Observed
Apr-23 @ 17:55 UTC
Wind
  • 200° at 4 KTS
Visibility
10 SM
Flight Rules
VFR
Cloud Levels
  • Clear skies
Temperature
17°C / 63°F
Dewpoint
C / 41°F
Humidity
45%
Altimeter
30.04" Hg
Pressure
1017.32 hPa